createdAt,value
2023-01-29T00:00:22.446Z,0.13
2023-01-29T00:02:50.949Z,0.08
2023-01-29T00:05:28.325Z,0.08
2023-01-29T00:07:57.550Z,0.02
2023-01-29T00:10:26.895Z,-0.02
2023-01-29T00:12:55.823Z,-0.07
2023-01-29T00:15:25.698Z,-0.10
2023-01-29T00:17:54.498Z,-0.13
2023-01-29T00:20:22.950Z,-0.11
2023-01-29T00:22:51.385Z,-0.14
2023-01-29T00:25:19.863Z,-0.17
2023-01-29T00:27:48.291Z,-0.21
2023-01-29T00:30:19.805Z,-0.22
2023-01-29T00:32:49.957Z,-0.23
2023-01-29T00:35:18.487Z,-0.25
2023-01-29T00:37:47.143Z,-0.21
2023-01-29T00:40:16.074Z,-0.20
2023-01-29T00:43:03.489Z,-0.17
2023-01-29T00:45:32.050Z,-0.15
2023-01-29T00:48:01.981Z,-0.18
2023-01-29T00:50:30.556Z,-0.13
2023-01-29T00:52:59.212Z,-0.14
2023-01-29T00:55:28.006Z,-0.13
2023-01-29T00:57:56.535Z,-0.14
2023-01-29T01:00:26.209Z,-0.16
2023-01-29T01:03:08.913Z,-0.18
2023-01-29T01:05:39.278Z,-0.23
2023-01-29T01:08:28.807Z,-0.27
2023-01-29T01:11:02.252Z,-0.30
2023-01-29T01:13:32.345Z,-0.29
2023-01-29T01:16:00.924Z,-0.27
2023-01-29T01:18:31.908Z,-0.28
2023-01-29T01:21:01.708Z,-0.26
2023-01-29T01:23:30.110Z,-0.25
2023-01-29T01:25:59.141Z,-0.25
2023-01-29T01:28:28.203Z,-0.30
2023-01-29T01:30:56.704Z,-0.30
2023-01-29T01:33:25.479Z,-0.30
2023-01-29T01:35:53.983Z,-0.31
2023-01-29T01:38:23.804Z,-0.28
2023-01-29T01:40:52.219Z,-0.28
2023-01-29T01:43:20.562Z,-0.31
2023-01-29T01:45:49.693Z,-0.34
2023-01-29T01:48:22.967Z,-0.35
2023-01-29T01:50:55.100Z,-0.34
2023-01-29T01:53:34.829Z,-0.33
2023-01-29T01:56:07.844Z,-0.33
2023-01-29T01:58:41.327Z,-0.33
2023-01-29T02:01:10.871Z,-0.31
2023-01-29T02:04:09.896Z,-0.29
2023-01-29T02:06:59.775Z,-0.31
2023-01-29T02:09:35.768Z,-0.30
2023-01-29T02:12:06.938Z,-0.31
2023-01-29T02:14:40.168Z,-0.33
2023-01-29T02:17:11.714Z,-0.33
2023-01-29T02:19:51.661Z,-0.34
2023-01-29T02:22:55.560Z,-0.36
2023-01-29T02:26:16.554Z,-0.36
2023-01-29T02:28:53.742Z,-0.39
2023-01-29T02:31:31.815Z,-0.35
2023-01-29T02:34:13.060Z,-0.36
2023-01-29T02:36:48.948Z,-0.38
2023-01-29T02:39:25.184Z,-0.39
2023-01-29T02:42:02.880Z,-0.42
2023-01-29T02:44:41.156Z,-0.43
2023-01-29T02:47:18.903Z,-0.43
2023-01-29T02:49:51.727Z,-0.41
2023-01-29T02:52:24.569Z,-0.44
2023-01-29T02:54:59.940Z,-0.43
2023-01-29T02:57:33.041Z,-0.44
2023-01-29T03:00:10.478Z,-0.46
2023-01-29T03:02:46.133Z,-0.46
2023-01-29T03:05:19.517Z,-0.49
2023-01-29T03:07:55.668Z,-0.48
2023-01-29T03:10:31.336Z,-0.47
2023-01-29T03:13:05.853Z,-0.48
2023-01-29T03:15:47.031Z,-0.45
2023-01-29T03:18:19.427Z,-0.46
2023-01-29T03:20:53.494Z,-0.45
2023-01-29T03:23:48.336Z,-0.45
2023-01-29T03:26:36.998Z,-0.45
2023-01-29T03:29:24.566Z,-0.44
2023-01-29T03:32:06.649Z,-0.43
2023-01-29T03:34:44.065Z,-0.42
2023-01-29T03:37:19.955Z,-0.44
2023-01-29T03:39:48.588Z,-0.47
2023-01-29T03:42:25.814Z,-0.49
2023-01-29T03:45:08.404Z,-0.50
2023-01-29T03:47:47.385Z,-0.51
2023-01-29T03:50:39.367Z,-0.51
2023-01-29T03:53:18.231Z,-0.53
2023-01-29T03:55:58.397Z,-0.54
2023-01-29T03:58:35.998Z,-0.56
2023-01-29T04:01:12.265Z,-0.53
2023-01-29T04:03:48.823Z,-0.50
2023-01-29T04:06:22.310Z,-0.47
2023-01-29T04:08:58.387Z,-0.47
2023-01-29T04:11:28.538Z,-0.45
2023-01-29T04:13:58.548Z,-0.45
2023-01-29T04:16:32.330Z,-0.45
2023-01-29T04:19:02.232Z,-0.46
2023-01-29T04:21:33.022Z,-0.44
2023-01-29T04:24:01.585Z,-0.41
2023-01-29T04:26:56.858Z,-0.43
2023-01-29T04:29:48.700Z,-0.42
2023-01-29T04:32:23.602Z,-0.45
2023-01-29T04:35:03.570Z,-0.42
2023-01-29T04:37:41.170Z,-0.42
2023-01-29T04:40:21.603Z,-0.41
2023-01-29T04:43:03.138Z,-0.41
2023-01-29T04:45:47.405Z,-0.42
2023-01-29T04:48:23.658Z,-0.37
2023-01-29T04:51:02.378Z,-0.34
2023-01-29T04:53:40.124Z,-0.34
2023-01-29T04:56:16.252Z,-0.33
2023-01-29T04:58:49.894Z,-0.34
2023-01-29T05:01:21.063Z,-0.37
2023-01-29T05:03:54.930Z,-0.38
2023-01-29T05:06:26.569Z,-0.38
2023-01-29T05:08:56.485Z,-0.39
2023-01-29T05:11:26.432Z,-0.40
2023-01-29T05:13:57.130Z,-0.39
2023-01-29T05:16:29.490Z,-0.38
2023-01-29T05:18:58.051Z,-0.40
2023-01-29T05:21:29.051Z,-0.39
2023-01-29T05:24:16.534Z,-0.40
2023-01-29T05:27:05.593Z,-0.39
2023-01-29T05:29:34.060Z,-0.39
2023-01-29T05:32:03.628Z,-0.39
2023-01-29T05:34:32.042Z,-0.40
2023-01-29T05:37:01.761Z,-0.39
2023-01-29T05:39:30.334Z,-0.40
2023-01-29T05:41:58.903Z,-0.42
2023-01-29T05:44:27.338Z,-0.41
2023-01-29T05:46:55.734Z,-0.44
2023-01-29T05:49:24.267Z,-0.43
2023-01-29T05:51:52.659Z,-0.43
2023-01-29T05:54:22.472Z,-0.42
2023-01-29T05:56:51.062Z,-0.42
2023-01-29T05:59:19.540Z,-0.41
2023-01-29T06:01:48.095Z,-0.43
2023-01-29T06:04:16.524Z,-0.45
2023-01-29T06:06:44.903Z,-0.45
2023-01-29T06:09:13.597Z,-0.45
2023-01-29T06:11:43.506Z,-0.45
2023-01-29T06:14:11.896Z,-0.43
2023-01-29T06:16:40.267Z,-0.44
2023-01-29T06:19:08.726Z,-0.42
2023-01-29T06:21:37.155Z,-0.41
2023-01-29T06:24:06.347Z,-0.44
2023-01-29T06:26:34.838Z,-0.43
2023-01-29T06:29:04.545Z,-0.41
2023-01-29T06:31:38.833Z,-0.43
2023-01-29T06:34:07.981Z,-0.43
2023-01-29T06:36:36.551Z,-0.43
2023-01-29T06:39:05.653Z,-0.40
2023-01-29T06:41:34.503Z,-0.40
2023-01-29T06:44:04.460Z,-0.37
2023-01-29T06:46:33.189Z,-0.36
2023-01-29T06:49:01.701Z,-0.34
2023-01-29T06:51:30.184Z,-0.34
2023-01-29T06:53:58.776Z,-0.30
2023-01-29T06:56:29.187Z,-0.29
2023-01-29T06:58:57.654Z,-0.29
2023-01-29T07:01:36.184Z,-0.31
2023-01-29T07:04:05.329Z,-0.27
2023-01-29T07:06:34.326Z,-0.28
2023-01-29T07:09:02.904Z,-0.27
2023-01-29T07:11:32.090Z,-0.27
2023-01-29T07:14:00.647Z,-0.26
2023-01-29T07:16:30.426Z,-0.27
2023-01-29T07:18:58.984Z,-0.26
2023-01-29T07:21:28.178Z,-0.24
2023-01-29T07:23:56.652Z,-0.20
2023-01-29T07:26:25.117Z,-0.18
2023-01-29T07:28:53.547Z,-0.16
2023-01-29T07:31:22.993Z,-0.14
2023-01-29T07:33:52.915Z,-0.14
2023-01-29T07:36:21.487Z,-0.14
2023-01-29T07:38:51.749Z,-0.10
2023-01-29T07:41:20.636Z,-0.07
2023-01-29T07:43:49.395Z,-0.06
2023-01-29T07:46:17.904Z,-0.06
2023-01-29T07:48:46.417Z,0.00
2023-01-29T07:51:18.184Z,0.05
2023-01-29T07:53:47.242Z,0.06
2023-01-29T07:56:15.873Z,0.09
2023-01-29T07:58:44.362Z,0.13
2023-01-29T08:01:12.947Z,0.19
2023-01-29T08:03:41.468Z,0.27
2023-01-29T08:06:09.985Z,0.31
2023-01-29T08:08:39.719Z,0.36
2023-01-29T08:11:08.158Z,0.33
2023-01-29T08:13:36.550Z,0.31
2023-01-29T08:16:06.850Z,0.31
2023-01-29T08:18:35.596Z,0.30
2023-01-29T08:21:05.196Z,0.32
2023-01-29T08:23:33.713Z,0.31
2023-01-29T08:26:04.548Z,0.30
2023-01-29T08:28:33.225Z,0.28
2023-01-29T08:31:01.887Z,0.28
2023-01-29T08:33:38.674Z,0.31
2023-01-29T08:36:09.199Z,0.32
2023-01-29T08:38:37.717Z,0.31
2023-01-29T08:41:08.467Z,0.32
2023-01-29T08:43:38.629Z,0.36
2023-01-29T08:46:08.463Z,0.39
2023-01-29T08:48:37.095Z,0.42
2023-01-29T08:51:05.889Z,0.48
2023-01-29T08:53:34.510Z,0.50
2023-01-29T08:56:07.766Z,0.52
2023-01-29T08:58:36.286Z,0.51
2023-01-29T09:01:09.374Z,0.51
2023-01-29T09:03:41.081Z,0.51
2023-01-29T09:06:11.754Z,0.52
2023-01-29T09:08:40.521Z,0.55
2023-01-29T09:11:10.740Z,0.58
2023-01-29T09:13:39.390Z,0.66
2023-01-29T09:16:08.854Z,0.72
2023-01-29T09:18:37.575Z,0.76
2023-01-29T09:21:06.906Z,0.79
2023-01-29T09:23:35.423Z,0.77
2023-01-29T09:26:04.208Z,0.78
2023-01-29T09:28:35.050Z,0.75
2023-01-29T09:31:04.098Z,0.71
2023-01-29T09:33:32.555Z,0.72
2023-01-29T09:36:01.081Z,0.70
2023-01-29T09:38:29.495Z,0.70
2023-01-29T09:41:09.991Z,0.70
2023-01-29T09:43:50.277Z,0.70
2023-01-29T09:46:26.073Z,0.73
2023-01-29T09:49:02.958Z,0.70
2023-01-29T09:51:41.732Z,0.75
2023-01-29T09:54:22.975Z,0.81
2023-01-29T09:56:56.334Z,0.88
2023-01-29T09:59:31.120Z,0.93
2023-01-29T10:02:18.700Z,1.00
2023-01-29T10:05:09.993Z,1.04
2023-01-29T10:08:28.439Z,1.11
2023-01-29T10:11:07.373Z,1.15
2023-01-29T10:13:49.569Z,1.18
2023-01-29T10:16:40.901Z,1.19
2023-01-29T10:19:53.929Z,1.08
2023-01-29T10:22:58.796Z,1.01
2023-01-29T10:25:27.393Z,0.94
2023-01-29T10:27:59.492Z,0.90
2023-01-29T10:30:34.712Z,0.88
2023-01-29T10:33:08.526Z,0.86
2023-01-29T10:35:42.487Z,0.82
2023-01-29T10:38:26.409Z,0.80
2023-01-29T10:41:08.174Z,0.80
2023-01-29T10:43:50.059Z,0.79
2023-01-29T10:46:32.971Z,0.77
2023-01-29T10:49:18.584Z,0.71
2023-01-29T10:52:05.766Z,0.66
2023-01-29T10:54:58.304Z,0.60
2023-01-29T10:57:46.375Z,0.54
2023-01-29T11:00:22.384Z,0.53
2023-01-29T11:02:53.098Z,0.54
2023-01-29T11:05:30.972Z,0.52
2023-01-29T11:08:08.306Z,0.55
2023-01-29T11:10:47.172Z,0.63
2023-01-29T11:13:17.486Z,0.68
2023-01-29T11:15:46.032Z,0.74
2023-01-29T11:18:16.331Z,0.81
2023-01-29T11:20:47.463Z,0.90
2023-01-29T11:23:28.900Z,0.95
2023-01-29T11:25:59.890Z,0.94
2023-01-29T11:28:40.256Z,0.92
2023-01-29T11:31:22.026Z,0.87
2023-01-29T11:33:53.220Z,0.88
2023-01-29T11:36:37.166Z,0.84
2023-01-29T11:39:20.736Z,0.83
2023-01-29T11:41:54.220Z,0.79
2023-01-29T11:44:30.112Z,0.78
2023-01-29T11:47:14.203Z,0.78
2023-01-29T11:49:48.009Z,0.78
2023-01-29T11:52:20.902Z,0.76
2023-01-29T11:54:54.705Z,0.73
2023-01-29T11:57:34.135Z,0.72
2023-01-29T12:00:06.691Z,0.72
2023-01-29T12:02:39.066Z,0.74
2023-01-29T12:05:17.338Z,0.75
2023-01-29T12:07:51.850Z,0.75
2023-01-29T12:10:35.619Z,0.79
2023-01-29T12:13:20.138Z,0.75
2023-01-29T12:15:49.980Z,0.73
2023-01-29T12:18:24.959Z,0.69
2023-01-29T12:21:01.238Z,0.64
2023-01-29T12:23:41.729Z,0.62
2023-01-29T12:26:17.974Z,0.64
2023-01-29T12:28:55.443Z,0.66
2023-01-29T12:31:34.425Z,0.65
2023-01-29T12:34:13.896Z,0.64
2023-01-29T12:36:53.255Z,0.60
2023-01-29T12:39:23.563Z,0.60
2023-01-29T12:41:59.215Z,0.60
2023-01-29T12:44:35.140Z,0.61
2023-01-29T12:47:08.118Z,0.60
2023-01-29T12:49:41.056Z,0.60
2023-01-29T12:52:16.606Z,0.57
2023-01-29T12:54:55.045Z,0.58
2023-01-29T12:57:29.946Z,0.57
2023-01-29T13:00:06.215Z,0.54
2023-01-29T13:02:41.229Z,0.48
2023-01-29T13:05:23.360Z,0.52
2023-01-29T13:07:59.432Z,0.51
2023-01-29T13:10:34.230Z,0.50
2023-01-29T13:13:08.454Z,0.48
2023-01-29T13:15:40.778Z,0.51
2023-01-29T13:18:41.453Z,0.57
2023-01-29T13:21:19.411Z,0.58
2023-01-29T13:23:52.751Z,0.60
2023-01-29T13:26:24.347Z,0.60
2023-01-29T13:28:53.908Z,0.57
2023-01-29T13:31:33.143Z,0.61
2023-01-29T13:34:15.891Z,0.61
2023-01-29T13:36:47.410Z,0.65
2023-01-29T13:39:32.177Z,0.60
2023-01-29T13:42:05.233Z,0.56
2023-01-29T13:44:39.863Z,0.54
2023-01-29T13:47:12.540Z,0.52
2023-01-29T13:49:45.262Z,0.51
2023-01-29T13:52:33.166Z,0.46
2023-01-29T13:55:05.849Z,0.40
2023-01-29T13:57:54.724Z,0.36
2023-01-29T14:00:58.578Z,0.34
2023-01-29T14:04:05.928Z,0.32
2023-01-29T14:06:49.153Z,0.33
2023-01-29T14:10:03.607Z,0.28
2023-01-29T14:12:48.177Z,0.24
2023-01-29T14:15:32.867Z,0.21
2023-01-29T14:18:26.058Z,0.21
2023-01-29T14:21:06.669Z,0.18
2023-01-29T14:23:42.768Z,0.18
2023-01-29T14:26:33.287Z,0.18
2023-01-29T14:29:25.506Z,0.16
2023-01-29T14:32:10.535Z,0.15
2023-01-29T14:34:46.012Z,0.16
2023-01-29T14:37:25.638Z,0.21
2023-01-29T14:39:57.660Z,0.21
2023-01-29T14:42:33.315Z,0.23
2023-01-29T14:45:12.560Z,0.24
2023-01-29T14:48:21.592Z,0.23
2023-01-29T14:51:00.228Z,0.19
2023-01-29T14:53:54.406Z,0.20
2023-01-29T14:56:32.405Z,0.19
2023-01-29T14:59:19.109Z,0.17
2023-01-29T15:01:55.299Z,0.16
2023-01-29T15:04:28.601Z,0.16
2023-01-29T15:07:04.752Z,0.16
2023-01-29T15:09:41.804Z,0.15
2023-01-29T15:12:22.695Z,0.16
2023-01-29T15:15:00.668Z,0.16
2023-01-29T15:17:38.673Z,0.16
2023-01-29T15:20:30.395Z,0.17
2023-01-29T15:22:59.092Z,0.18
2023-01-29T15:25:33.963Z,0.19
2023-01-29T15:28:08.511Z,0.20
2023-01-29T15:30:38.747Z,0.21
2023-01-29T15:33:12.176Z,0.19
2023-01-29T15:35:43.619Z,0.15
2023-01-29T15:38:19.269Z,0.15
2023-01-29T15:40:56.521Z,0.15
2023-01-29T15:43:28.436Z,0.16
2023-01-29T15:46:00.899Z,0.20
2023-01-29T15:48:36.049Z,0.19
2023-01-29T15:51:08.581Z,0.18
2023-01-29T15:53:43.282Z,0.20
2023-01-29T15:56:14.305Z,0.22
2023-01-29T15:58:44.079Z,0.23
2023-01-29T16:01:12.989Z,0.23
2023-01-29T16:03:44.305Z,0.22
2023-01-29T16:06:13.726Z,0.22
2023-01-29T16:08:43.604Z,0.23
2023-01-29T16:11:12.390Z,0.23
2023-01-29T16:13:43.329Z,0.27
2023-01-29T16:16:25.339Z,0.27
2023-01-29T16:19:00.844Z,0.29
2023-01-29T16:21:34.161Z,0.31
2023-01-29T16:24:09.852Z,0.27
2023-01-29T16:26:40.955Z,0.26
2023-01-29T16:29:13.093Z,0.27
2023-01-29T16:31:43.665Z,0.25
2023-01-29T16:34:26.890Z,0.30
2023-01-29T16:36:56.670Z,0.28
2023-01-29T16:39:29.080Z,0.33
2023-01-29T16:42:25.739Z,0.33
2023-01-29T16:45:01.140Z,0.30
2023-01-29T16:47:35.069Z,0.32
2023-01-29T16:50:28.552Z,0.30
2023-01-29T16:53:01.915Z,0.30
2023-01-29T16:55:38.550Z,0.32
2023-01-29T16:58:17.095Z,0.38
2023-01-29T17:00:48.256Z,0.39
2023-01-29T17:03:19.399Z,0.38
2023-01-29T17:05:51.021Z,0.42
2023-01-29T17:08:26.667Z,0.41
2023-01-29T17:10:55.374Z,0.42
2023-01-29T17:13:31.738Z,0.41
2023-01-29T17:16:03.824Z,0.40
2023-01-29T17:18:32.426Z,0.42
2023-01-29T17:21:02.304Z,0.43
2023-01-29T17:23:30.926Z,0.43
2023-01-29T17:26:00.538Z,0.43
2023-01-29T17:28:29.378Z,0.42
2023-01-29T17:31:06.159Z,0.41
2023-01-29T17:33:35.325Z,0.41
2023-01-29T17:36:06.156Z,0.43
2023-01-29T17:38:34.997Z,0.39
2023-01-29T17:41:11.674Z,0.44
2023-01-29T17:43:40.071Z,0.42
2023-01-29T17:46:14.583Z,0.45
2023-01-29T17:48:43.965Z,0.44
2023-01-29T17:51:16.844Z,0.42
2023-01-29T17:53:47.491Z,0.38
2023-01-29T17:56:18.739Z,0.38
2023-01-29T17:58:47.217Z,0.37
2023-01-29T18:01:16.444Z,0.33
2023-01-29T18:03:44.927Z,0.35
2023-01-29T18:06:27.242Z,0.35
2023-01-29T18:08:56.415Z,0.35
2023-01-29T18:11:25.432Z,0.35
2023-01-29T18:13:53.903Z,0.34
2023-01-29T18:16:22.897Z,0.33
2023-01-29T18:18:53.050Z,0.37
2023-01-29T18:21:22.805Z,0.36
2023-01-29T18:23:51.401Z,0.36
2023-01-29T18:26:19.974Z,0.37
2023-01-29T18:28:48.332Z,0.35
2023-01-29T18:31:16.779Z,0.35
2023-01-29T18:33:45.442Z,0.39
2023-01-29T18:36:15.872Z,0.38
2023-01-29T18:38:45.873Z,0.42
2023-01-29T18:41:14.623Z,0.48
2023-01-29T18:43:44.309Z,0.57
2023-01-29T18:46:14.053Z,0.59
2023-01-29T18:48:43.105Z,0.56
2023-01-29T18:51:11.728Z,0.59
2023-01-29T18:53:40.203Z,0.60
2023-01-29T18:56:12.283Z,0.59
2023-01-29T18:58:41.078Z,0.59
2023-01-29T19:01:12.111Z,0.59
2023-01-29T19:03:41.838Z,0.61
2023-01-29T19:06:12.447Z,0.58
2023-01-29T19:08:43.065Z,0.60
2023-01-29T19:11:13.123Z,0.62
2023-01-29T19:13:42.871Z,0.66
2023-01-29T19:16:13.563Z,0.67
2023-01-29T19:18:42.468Z,0.71
2023-01-29T19:21:13.414Z,0.69
2023-01-29T19:23:43.106Z,0.69
2023-01-29T19:26:14.134Z,0.68
2023-01-29T19:28:43.010Z,0.65
2023-01-29T19:31:11.517Z,0.68
2023-01-29T19:33:40.725Z,0.65
2023-01-29T19:36:10.366Z,0.68
2023-01-29T19:38:39.926Z,0.71
2023-01-29T19:41:10.003Z,0.73
2023-01-29T19:43:42.266Z,0.70
2023-01-29T19:46:13.055Z,0.73
2023-01-29T19:48:41.722Z,0.72
2023-01-29T19:51:12.247Z,0.68
2023-01-29T19:53:44.267Z,0.69
2023-01-29T19:56:15.954Z,0.68
2023-01-29T19:58:46.134Z,0.68
2023-01-29T20:01:18.179Z,0.70
2023-01-29T20:03:48.498Z,0.73
2023-01-29T20:06:21.272Z,0.75
2023-01-29T20:08:49.695Z,0.76
2023-01-29T20:11:24.863Z,0.76
2023-01-29T20:13:55.042Z,0.73
2023-01-29T20:16:24.585Z,0.75
2023-01-29T20:18:53.378Z,0.74
2023-01-29T20:21:23.027Z,0.72
2023-01-29T20:23:52.992Z,0.69
2023-01-29T20:26:22.170Z,0.67
2023-01-29T20:28:51.227Z,0.64
2023-01-29T20:31:21.603Z,0.61
2023-01-29T20:33:50.644Z,0.58
2023-01-29T20:36:19.567Z,0.58
2023-01-29T20:38:48.092Z,0.54
2023-01-29T20:41:18.652Z,0.55
2023-01-29T20:43:50.220Z,0.53
2023-01-29T20:46:21.825Z,0.55
2023-01-29T20:48:53.189Z,0.56
2023-01-29T20:51:21.944Z,0.60
2023-01-29T20:53:50.356Z,0.59
2023-01-29T20:56:23.706Z,0.57
2023-01-29T20:59:05.194Z,0.60
2023-01-29T21:01:35.349Z,0.61
2023-01-29T21:04:04.142Z,0.60
2023-01-29T21:06:33.072Z,0.59
2023-01-29T21:09:01.554Z,0.59
2023-01-29T21:11:29.967Z,0.58
2023-01-29T21:14:05.780Z,0.59
2023-01-29T21:16:35.943Z,0.57
2023-01-29T21:19:04.504Z,0.55
2023-01-29T21:21:32.948Z,0.58
2023-01-29T21:24:01.406Z,0.61
2023-01-29T21:26:29.929Z,0.65
2023-01-29T21:28:58.433Z,0.65
2023-01-29T21:31:26.942Z,0.68
2023-01-29T21:33:57.065Z,0.67
2023-01-29T21:36:25.464Z,0.66
2023-01-29T21:38:53.932Z,0.67
2023-01-29T21:41:43.852Z,0.70
2023-01-29T21:44:11.707Z,0.70
2023-01-29T21:46:40.235Z,0.72
2023-01-29T21:49:10.084Z,0.70
2023-01-29T21:51:38.445Z,0.68
2023-01-29T21:54:07.074Z,0.64
2023-01-29T21:56:35.572Z,0.67
2023-01-29T21:59:04.022Z,0.68
2023-01-29T22:01:37.643Z,0.67
2023-01-29T22:04:08.305Z,0.68
2023-01-29T22:06:38.125Z,0.69
2023-01-29T22:09:07.140Z,0.69
2023-01-29T22:11:35.864Z,0.69
2023-01-29T22:14:04.250Z,0.68
2023-01-29T22:16:32.619Z,0.70
2023-01-29T22:19:01.414Z,0.70
2023-01-29T22:21:29.846Z,0.71
2023-01-29T22:23:59.565Z,0.75
2023-01-29T22:26:29.679Z,0.75
2023-01-29T22:28:58.096Z,0.72
2023-01-29T22:31:26.559Z,0.74
2023-01-29T22:33:58.741Z,0.75
2023-01-29T22:36:27.198Z,0.75
2023-01-29T22:38:55.621Z,0.75
2023-01-29T22:41:25.525Z,0.75
2023-01-29T22:43:53.934Z,0.76
2023-01-29T22:46:22.823Z,0.78
2023-01-29T22:48:51.264Z,0.80
2023-01-29T22:51:20.705Z,0.81
2023-01-29T22:53:53.599Z,0.85
2023-01-29T22:56:26.629Z,0.85
2023-01-29T22:58:57.081Z,0.86
2023-01-29T23:01:27.908Z,0.87
2023-01-29T23:03:56.678Z,0.88
2023-01-29T23:06:25.577Z,0.88
2023-01-29T23:08:53.978Z,0.87
2023-01-29T23:11:24.399Z,0.88
2023-01-29T23:13:55.909Z,0.87
2023-01-29T23:16:28.234Z,0.93
2023-01-29T23:18:57.853Z,0.94
2023-01-29T23:21:27.727Z,0.94
2023-01-29T23:23:58.425Z,0.98
2023-01-29T23:29:11.267Z,1.01
2023-01-29T23:32:11.023Z,1.02
2023-01-29T23:34:40.006Z,1.06
2023-01-29T23:37:08.519Z,1.08
2023-01-29T23:39:36.974Z,1.09
2023-01-29T23:42:06.313Z,1.11
2023-01-29T23:44:55.039Z,1.13
2023-01-29T23:47:25.818Z,1.13
2023-01-29T23:49:54.382Z,1.16
2023-01-29T23:52:22.836Z,1.17
2023-01-29T23:54:51.351Z,1.17
2023-01-29T23:57:19.767Z,1.18
2023-01-29T23:59:48.202Z,1.17
